sensor_id;sensor_type;location;lat;lon;timestamp;pressure;altitude;pressure_sealevel;temperature;humidity
68793;BME280;55778;54.346;10.210;2023-05-07T00:01:56;101892.59;;;7.63;100.00
68793;BME280;55778;54.346;10.210;2023-05-07T00:04:22;101883.75;;;7.60;100.00
68793;BME280;55778;54.346;10.210;2023-05-07T00:06:47;101892.38;;;7.66;100.00
68793;BME280;55778;54.346;10.210;2023-05-07T00:09:13;101891.31;;;7.69;100.00
68793;BME280;55778;54.346;10.210;2023-05-07T00:11:38;101890.13;;;7.73;100.00
68793;BME280;55778;54.346;10.210;2023-05-07T00:14:04;101892.28;;;7.68;100.00
68793;BME280;55778;54.346;10.210;2023-05-07T00:16:29;101893.25;;;7.67;100.00
68793;BME280;55778;54.346;10.210;2023-05-07T00:18:55;101890.91;;;7.75;100.00
68793;BME280;55778;54.346;10.210;2023-05-07T00:21:20;101893.63;;;7.75;100.00
68793;BME280;55778;54.346;10.210;2023-05-07T00:23:46;101891.00;;;7.73;100.00
68793;BME280;55778;54.346;10.210;2023-05-07T00:26:12;101900.22;;;7.71;100.00
68793;BME280;55778;54.346;10.210;2023-05-07T00:28:37;101895.56;;;7.73;100.00
68793;BME280;55778;54.346;10.210;2023-05-07T00:31:02;101891.69;;;7.77;100.00
68793;BME280;55778;54.346;10.210;2023-05-07T00:33:28;101887.22;;;7.76;100.00
68793;BME280;55778;54.346;10.210;2023-05-07T00:35:53;101898.66;;;7.81;100.00
68793;BME280;55778;54.346;10.210;2023-05-07T00:38:21;101894.09;;;7.81;100.00
68793;BME280;55778;54.346;10.210;2023-05-07T00:40:47;101895.63;;;7.85;100.00
68793;BME280;55778;54.346;10.210;2023-05-07T00:43:12;101889.31;;;7.85;100.00
68793;BME280;55778;54.346;10.210;2023-05-07T00:45:38;101889.41;;;7.83;100.00
68793;BME280;55778;54.346;10.210;2023-05-07T00:48:04;101890.00;;;7.88;100.00
68793;BME280;55778;54.346;10.210;2023-05-07T00:50:30;101888.06;;;7.90;100.00
68793;BME280;55778;54.346;10.210;2023-05-07T00:52:56;101881.56;;;7.93;100.00
68793;BME280;55778;54.346;10.210;2023-05-07T00:55:22;101877.97;;;7.92;100.00
68793;BME280;55778;54.346;10.210;2023-05-07T00:57:49;101875.94;;;7.96;100.00
68793;BME280;55778;54.346;10.210;2023-05-07T01:00:15;101882.88;;;8.00;100.00
68793;BME280;55778;54.346;10.210;2023-05-07T01:02:41;101876.03;;;7.94;100.00
68793;BME280;55778;54.346;10.210;2023-05-07T01:05:09;101875.03;;;7.95;100.00
68793;BME280;55778;54.346;10.210;2023-05-07T01:07:37;101877.56;;;7.98;100.00
68793;BME280;55778;54.346;10.210;2023-05-07T01:10:04;101878.84;;;7.93;100.00
68793;BME280;55778;54.346;10.210;2023-05-07T01:12:30;101871.38;;;7.96;100.00
68793;BME280;55778;54.346;10.210;2023-05-07T01:14:57;101872.13;;;7.98;100.00
68793;BME280;55778;54.346;10.210;2023-05-07T01:17:22;101878.13;;;8.03;100.00
68793;BME280;55778;54.346;10.210;2023-05-07T01:19:48;101875.63;;;8.00;100.00
68793;BME280;55778;54.346;10.210;2023-05-07T01:22:15;101878.03;;;8.05;100.00
68793;BME280;55778;54.346;10.210;2023-05-07T01:24:42;101880.94;;;8.02;100.00
68793;BME280;55778;54.346;10.210;2023-05-07T01:27:07;101879.97;;;8.03;100.00
68793;BME280;55778;54.346;10.210;2023-05-07T01:29:33;101876.19;;;8.05;100.00
68793;BME280;55778;54.346;10.210;2023-05-07T01:31:59;101867.16;;;8.05;100.00
68793;BME280;55778;54.346;10.210;2023-05-07T01:34:27;101872.22;;;7.97;100.00
68793;BME280;55778;54.346;10.210;2023-05-07T01:36:55;101869.09;;;8.03;100.00
68793;BME280;55778;54.346;10.210;2023-05-07T01:39:25;101871.91;;;8.01;100.00
68793;BME280;55778;54.346;10.210;2023-05-07T01:41:53;101872.03;;;8.00;100.00
68793;BME280;55778;54.346;10.210;2023-05-07T01:44:19;101874.75;;;8.00;100.00
68793;BME280;55778;54.346;10.210;2023-05-07T01:46:46;101874.53;;;8.03;100.00
68793;BME280;55778;54.346;10.210;2023-05-07T01:49:12;101876.41;;;8.02;100.00
68793;BME280;55778;54.346;10.210;2023-05-07T01:51:38;101872.81;;;8.02;100.00
68793;BME280;55778;54.346;10.210;2023-05-07T01:54:05;101875.53;;;8.02;100.00
68793;BME280;55778;54.346;10.210;2023-05-07T01:56:31;101879.00;;;8.04;100.00
68793;BME280;55778;54.346;10.210;2023-05-07T01:58:56;101879.53;;;7.96;100.00
68793;BME280;55778;54.346;10.210;2023-05-07T02:01:21;101874.44;;;8.04;100.00
68793;BME280;55778;54.346;10.210;2023-05-07T02:03:47;101877.56;;;7.98;100.00
68793;BME280;55778;54.346;10.210;2023-05-07T02:06:12;101881.63;;;8.05;100.00
68793;BME280;55778;54.346;10.210;2023-05-07T02:08:38;101885.19;;;8.06;100.00
68793;BME280;55778;54.346;10.210;2023-05-07T02:11:03;101885.09;;;8.07;100.00
68793;BME280;55778;54.346;10.210;2023-05-07T02:13:29;101885.09;;;8.07;100.00
68793;BME280;55778;54.346;10.210;2023-05-07T02:15:55;101888.31;;;8.00;100.00
68793;BME280;55778;54.346;10.210;2023-05-07T02:18:20;101891.69;;;8.03;100.00
68793;BME280;55778;54.346;10.210;2023-05-07T02:20:46;101894.13;;;8.08;100.00
68793;BME280;55778;54.346;10.210;2023-05-07T02:23:11;101900.72;;;8.04;100.00
68793;BME280;55778;54.346;10.210;2023-05-07T02:25:36;101900.28;;;8.10;100.00
68793;BME280;55778;54.346;10.210;2023-05-07T02:28:02;101894.84;;;8.10;100.00
68793;BME280;55778;54.346;10.210;2023-05-07T02:30:28;101896.03;;;8.06;100.00
68793;BME280;55778;54.346;10.210;2023-05-07T02:32:53;101897.47;;;8.11;100.00
68793;BME280;55778;54.346;10.210;2023-05-07T02:35:19;101903.78;;;8.12;100.00
68793;BME280;55778;54.346;10.210;2023-05-07T02:37:44;101899.44;;;8.09;100.00
68793;BME280;55778;54.346;10.210;2023-05-07T02:40:10;101900.38;;;8.08;100.00
68793;BME280;55778;54.346;10.210;2023-05-07T02:42:36;101902.16;;;8.09;100.00
68793;BME280;55778;54.346;10.210;2023-05-07T02:45:01;101902.06;;;8.11;100.00
68793;BME280;55778;54.346;10.210;2023-05-07T02:47:26;101907.69;;;8.08;100.00
68793;BME280;55778;54.346;10.210;2023-05-07T02:49:54;101899.34;;;8.11;100.00
68793;BME280;55778;54.346;10.210;2023-05-07T02:52:19;101902.06;;;8.11;100.00
68793;BME280;55778;54.346;10.210;2023-05-07T02:54:44;101905.72;;;8.10;100.00
68793;BME280;55778;54.346;10.210;2023-05-07T02:57:10;101908.22;;;8.13;100.00
68793;BME280;55778;54.346;10.210;2023-05-07T02:59:35;101907.06;;;8.17;100.00
68793;BME280;55778;54.346;10.210;2023-05-07T03:02:01;101908.31;;;8.26;100.00
68793;BME280;55778;54.346;10.210;2023-05-07T03:04:26;101906.88;;;8.20;100.00
68793;BME280;55778;54.346;10.210;2023-05-07T03:06:51;101901.75;;;8.15;100.00
68793;BME280;55778;54.346;10.210;2023-05-07T03:09:17;101898.63;;;8.22;100.00
68793;BME280;55778;54.346;10.210;2023-05-07T03:11:42;101900.38;;;8.23;100.00
68793;BME280;55778;54.346;10.210;2023-05-07T03:14:08;101904.94;;;8.22;100.00
68793;BME280;55778;54.346;10.210;2023-05-07T03:16:33;101899.88;;;8.16;100.00
68793;BME280;55778;54.346;10.210;2023-05-07T03:18:58;101901.34;;;8.22;100.00
68793;BME280;55778;54.346;10.210;2023-05-07T03:21:24;101899.50;;;8.22;100.00
68793;BME280;55778;54.346;10.210;2023-05-07T03:23:51;101901.34;;;8.22;100.00
68793;BME280;55778;54.346;10.210;2023-05-07T03:26:16;101895.84;;;8.23;100.00
68793;BME280;55778;54.346;10.210;2023-05-07T03:28:42;101898.63;;;8.22;100.00
68793;BME280;55778;54.346;10.210;2023-05-07T03:31:07;101895.84;;;8.23;100.00
68793;BME280;55778;54.346;10.210;2023-05-07T03:33:33;101904.25;;;8.18;100.00
68793;BME280;55778;54.346;10.210;2023-05-07T03:36:00;101896.59;;;8.25;100.00
68793;BME280;55778;54.346;10.210;2023-05-07T03:38:26;101905.31;;;8.16;100.00
68793;BME280;55778;54.346;10.210;2023-05-07T03:40:51;101906.97;;;8.18;100.00
68793;BME280;55778;54.346;10.210;2023-05-07T03:43:17;101906.88;;;8.20;100.00
68793;BME280;55778;54.346;10.210;2023-05-07T03:45:42;101906.09;;;8.18;100.00
68793;BME280;55778;54.346;10.210;2023-05-07T03:48:07;101908.59;;;8.21;100.00
68793;BME280;55778;54.346;10.210;2023-05-07T03:50:33;101905.88;;;8.21;100.00
68793;BME280;55778;54.346;10.210;2023-05-07T03:52:58;101908.22;;;8.27;100.00
68793;BME280;55778;54.346;10.210;2023-05-07T03:55:24;101902.91;;;8.26;100.00
68793;BME280;55778;54.346;10.210;2023-05-07T03:57:50;101906.97;;;8.18;100.00
68793;BME280;55778;54.346;10.210;2023-05-07T04:00:15;101900.28;;;8.24;100.00
68793;BME280;55778;54.346;10.210;2023-05-07T04:02:41;101903.47;;;8.16;100.00
68793;BME280;55778;54.346;10.210;2023-05-07T04:05:07;101907.53;;;8.24;100.00
68793;BME280;55778;54.346;10.210;2023-05-07T04:07:33;101904.84;;;8.24;100.00
68793;BME280;55778;54.346;10.210;2023-05-07T04:09:58;101909.94;;;8.28;100.00
68793;BME280;55778;54.346;10.210;2023-05-07T04:12:23;101903.56;;;8.29;100.00
68793;BME280;55778;54.346;10.210;2023-05-07T04:14:49;101905.09;;;8.33;100.00
68793;BME280;55778;54.346;10.210;2023-05-07T04:17:14;101913.34;;;8.32;100.00
68793;BME280;55778;54.346;10.210;2023-05-07T04:19:40;101916.06;;;8.32;100.00
68793;BME280;55778;54.346;10.210;2023-05-07T04:22:10;101921.91;;;8.26;100.00
68793;BME280;55778;54.346;10.210;2023-05-07T04:24:35;101925.28;;;8.29;100.00
68793;BME280;55778;54.346;10.210;2023-05-07T04:27:01;101920.81;;;8.28;100.00
68793;BME280;55778;54.346;10.210;2023-05-07T04:29:26;101925.41;;;8.28;100.00
68793;BME280;55778;54.346;10.210;2023-05-07T04:31:52;101926.34;;;8.27;100.00
68793;BME280;55778;54.346;10.210;2023-05-07T04:34:17;101936.25;;;8.28;100.00
68793;BME280;55778;54.346;10.210;2023-05-07T04:36:43;101936.16;;;8.29;100.00
68793;BME280;55778;54.346;10.210;2023-05-07T04:39:08;101944.75;;;8.36;100.00
68793;BME280;55778;54.346;10.210;2023-05-07T04:41:36;101940.19;;;8.36;100.00
68793;BME280;55778;54.346;10.210;2023-05-07T04:44:01;101944.09;;;8.32;100.00
68793;BME280;55778;54.346;10.210;2023-05-07T04:46:29;101936.25;;;8.28;100.00
68793;BME280;55778;54.346;10.210;2023-05-07T04:48:54;101937.88;;;8.30;100.00
68793;BME280;55778;54.346;10.210;2023-05-07T04:51:20;101939.22;;;8.37;100.00
68793;BME280;55778;54.346;10.210;2023-05-07T04:53:45;101942.50;;;8.42;100.00
68793;BME280;55778;54.346;10.210;2023-05-07T04:56:11;101945.41;;;8.39;100.00
68793;BME280;55778;54.346;10.210;2023-05-07T04:58:36;101942.72;;;8.39;100.00
68793;BME280;55778;54.346;10.210;2023-05-07T05:01:02;101938.06;;;8.41;100.00
68793;BME280;55778;54.346;10.210;2023-05-07T05:03:27;101946.31;;;8.40;100.00
68793;BME280;55778;54.346;10.210;2023-05-07T05:05:52;101952.47;;;8.42;100.00
68793;BME280;55778;54.346;10.210;2023-05-07T05:08:18;101952.28;;;8.45;100.00
68793;BME280;55778;54.346;10.210;2023-05-07T05:10:43;101954.78;;;8.48;100.00
68793;BME280;55778;54.346;10.210;2023-05-07T05:13:09;101949.88;;;8.40;100.00
68793;BME280;55778;54.346;10.210;2023-05-07T05:15:35;101952.19;;;8.46;100.00
68793;BME280;55778;54.346;10.210;2023-05-07T05:18:00;101954.25;;;8.43;100.00
68793;BME280;55778;54.346;10.210;2023-05-07T05:20:26;101954.34;;;8.41;100.00
68793;BME280;55778;54.346;10.210;2023-05-07T05:22:51;101949.56;;;8.45;100.00
68793;BME280;55778;54.346;10.210;2023-05-07T05:25:17;101958.50;;;8.47;100.00
68793;BME280;55778;54.346;10.210;2023-05-07T05:27:42;101958.50;;;8.47;100.00
68793;BME280;55778;54.346;10.210;2023-05-07T05:30:08;101970.19;;;8.47;100.00
68793;BME280;55778;54.346;10.210;2023-05-07T05:32:33;101964.47;;;8.52;100.00
68793;BME280;55778;54.346;10.210;2023-05-07T05:34:59;101968.69;;;8.43;100.00
68793;BME280;55778;54.346;10.210;2023-05-07T05:37:25;101964.22;;;8.42;100.00
68793;BME280;55778;54.346;10.210;2023-05-07T05:39:50;101968.38;;;8.48;100.00
68793;BME280;55778;54.346;10.210;2023-05-07T05:42:15;101960.78;;;8.53;100.00
68793;BME280;55778;54.346;10.210;2023-05-07T05:44:41;101975.50;;;8.63;100.00
68793;BME280;55778;54.346;10.210;2023-05-07T05:47:06;101966.03;;;8.68;100.00
68793;BME280;55778;54.346;10.210;2023-05-07T05:49:32;101967.69;;;8.71;100.00
68793;BME280;55778;54.346;10.210;2023-05-07T05:51:57;101962.47;;;8.68;100.00
68793;BME280;55778;54.346;10.210;2023-05-07T05:54:23;101965.94;;;8.70;100.00
68793;BME280;55778;54.346;10.210;2023-05-07T05:56:48;101969.31;;;8.73;100.00
68793;BME280;55778;54.346;10.210;2023-05-07T05:59:14;101968.34;;;8.74;100.00
68793;BME280;55778;54.346;10.210;2023-05-07T06:01:40;101966.63;;;8.86;100.00
68793;BME280;55778;54.346;10.210;2023-05-07T06:04:05;101966.94;;;8.81;100.00
68793;BME280;55778;54.346;10.210;2023-05-07T06:06:31;101968.59;;;8.84;100.00
68793;BME280;55778;54.346;10.210;2023-05-07T06:08:57;101971.00;;;8.88;100.00
68793;BME280;55778;54.346;10.210;2023-05-07T06:11:22;101966.97;;;8.94;100.00
68793;BME280;55778;54.346;10.210;2023-05-07T06:13:47;101970.78;;;8.91;100.00
68793;BME280;55778;54.346;10.210;2023-05-07T06:16:14;101972.94;;;8.86;100.00
68793;BME280;55778;54.346;10.210;2023-05-07T06:18:40;101975.25;;;8.92;100.00
68793;BME280;55778;54.346;10.210;2023-05-07T06:21:05;101973.72;;;8.88;100.00
68793;BME280;55778;54.346;10.210;2023-05-07T06:23:31;101979.06;;;8.90;100.00
68793;BME280;55778;54.346;10.210;2023-05-07T06:25:56;101983.59;;;8.89;100.00
68793;BME280;55778;54.346;10.210;2023-05-07T06:28:22;101980.34;;;8.97;100.00
68793;BME280;55778;54.346;10.210;2023-05-07T06:30:47;101979.63;;;9.07;100.00
68793;BME280;55778;54.346;10.210;2023-05-07T06:33:15;101974.63;;;9.14;100.00
68793;BME280;55778;54.346;10.210;2023-05-07T06:35:40;101982.78;;;9.14;100.00
68793;BME280;55778;54.346;10.210;2023-05-07T06:38:05;101977.34;;;9.14;100.00
68793;BME280;55778;54.346;10.210;2023-05-07T06:40:31;101974.84;;;9.36;100.00
68793;BME280;55778;54.346;10.210;2023-05-07T06:42:56;101974.53;;;9.40;99.40
68793;BME280;55778;54.346;10.210;2023-05-07T06:45:21;101978.88;;;9.43;99.54
68793;BME280;55778;54.346;10.210;2023-05-07T06:47:47;101977.56;;;9.48;98.89
68793;BME280;55778;54.346;10.210;2023-05-07T06:50:12;101974.41;;;9.54;97.92
68793;BME280;55778;54.346;10.210;2023-05-07T06:52:38;101986.50;;;9.50;97.87
68793;BME280;55778;54.346;10.210;2023-05-07T06:55:04;101974.19;;;9.57;97.25
68793;BME280;55778;54.346;10.210;2023-05-07T06:57:30;101968.31;;;9.63;96.48
68793;BME280;55778;54.346;10.210;2023-05-07T06:59:55;101985.06;;;9.70;96.10
68793;BME280;55778;54.346;10.210;2023-05-07T07:02:21;101975.59;;;9.75;95.51
68793;BME280;55778;54.346;10.210;2023-05-07T07:04:49;101976.13;;;9.80;95.15
68793;BME280;55778;54.346;10.210;2023-05-07T07:07:14;101968.59;;;9.96;94.17
68793;BME280;55778;54.346;10.210;2023-05-07T07:09:40;101980.00;;;10.01;93.56
68793;BME280;55778;54.346;10.210;2023-05-07T07:12:05;101972.16;;;10.09;93.92
68793;BME280;55778;54.346;10.210;2023-05-07T07:14:32;101976.81;;;10.20;93.64
68793;BME280;55778;54.346;10.210;2023-05-07T07:16:57;101983.63;;;10.38;90.85
68793;BME280;55778;54.346;10.210;2023-05-07T07:19:23;101966.94;;;10.43;89.74
68793;BME280;55778;54.346;10.210;2023-05-07T07:21:49;101978.56;;;10.45;89.65
68793;BME280;55778;54.346;10.210;2023-05-07T07:24:14;101998.88;;;10.41;88.90
68793;BME280;55778;54.346;10.210;2023-05-07T07:26:46;101984.72;;;10.36;89.21
68793;BME280;55778;54.346;10.210;2023-05-07T07:29:12;101994.78;;;10.59;89.64
68793;BME280;55778;54.346;10.210;2023-05-07T07:31:37;101978.66;;;10.56;87.30
68793;BME280;55778;54.346;10.210;2023-05-07T07:34:02;101979.31;;;10.94;87.08
68793;BME280;55778;54.346;10.210;2023-05-07T07:36:28;101975.22;;;11.45;83.79
68793;BME280;55778;54.346;10.210;2023-05-07T07:38:53;101976.47;;;11.52;82.75
68793;BME280;55778;54.346;10.210;2023-05-07T07:41:19;101972.53;;;11.67;82.63
68793;BME280;55778;54.346;10.210;2023-05-07T07:43:44;101981.94;;;11.52;82.25
68793;BME280;55778;54.346;10.210;2023-05-07T07:46:11;101972.69;;;11.20;83.13
68793;BME280;55778;54.346;10.210;2023-05-07T07:48:37;101979.59;;;11.02;85.05
68793;BME280;55778;54.346;10.210;2023-05-07T07:51:02;101974.38;;;10.99;86.39
68793;BME280;55778;54.346;10.210;2023-05-07T07:53:28;101983.66;;;11.42;84.56
68793;BME280;55778;54.346;10.210;2023-05-07T07:55:53;101982.72;;;11.19;84.56
68793;BME280;55778;54.346;10.210;2023-05-07T07:58:18;101979.75;;;11.22;84.85
68793;BME280;55778;54.346;10.210;2023-05-07T08:00:44;101977.94;;;11.56;84.24
68793;BME280;55778;54.346;10.210;2023-05-07T08:03:10;101986.44;;;11.64;81.80
68793;BME280;55778;54.346;10.210;2023-05-07T08:05:35;101986.88;;;11.47;82.70
68793;BME280;55778;54.346;10.210;2023-05-07T08:08:01;101986.38;;;11.42;83.61
68793;BME280;55778;54.346;10.210;2023-05-07T08:10:27;101981.16;;;11.50;83.09
68793;BME280;55778;54.346;10.210;2023-05-07T08:12:52;101982.06;;;11.61;83.17
68793;BME280;55778;54.346;10.210;2023-05-07T08:15:18;101969.44;;;11.71;81.72
68793;BME280;55778;54.346;10.210;2023-05-07T08:17:43;101967.72;;;11.70;81.42
68793;BME280;55778;54.346;10.210;2023-05-07T08:20:09;101971.78;;;11.65;81.33
68793;BME280;55778;54.346;10.210;2023-05-07T08:22:35;101973.38;;;11.56;81.59
68793;BME280;55778;54.346;10.210;2023-05-07T08:25:01;101982.56;;;11.55;81.88
68793;BME280;55778;54.346;10.210;2023-05-07T08:27:26;101971.66;;;11.55;82.62
68793;BME280;55778;54.346;10.210;2023-05-07T08:29:53;101970.81;;;11.77;81.52
68793;BME280;55778;54.346;10.210;2023-05-07T08:32:18;101976.50;;;11.74;81.84
68793;BME280;55778;54.346;10.210;2023-05-07T08:34:44;101968.56;;;11.93;80.47
68793;BME280;55778;54.346;10.210;2023-05-07T08:37:09;101968.53;;;12.15;80.14
68793;BME280;55778;54.346;10.210;2023-05-07T08:39:34;101974.38;;;12.22;79.62
68793;BME280;55778;54.346;10.210;2023-05-07T08:42:00;101977.13;;;11.88;78.92
68793;BME280;55778;54.346;10.210;2023-05-07T08:44:29;101982.59;;;11.77;79.79
68793;BME280;55778;54.346;10.210;2023-05-07T08:46:58;101993.38;;;12.12;78.34
68793;BME280;55778;54.346;10.210;2023-05-07T08:49:25;101988.66;;;12.14;78.98
68793;BME280;55778;54.346;10.210;2023-05-07T08:51:50;101986.44;;;12.08;78.69
68793;BME280;55778;54.346;10.210;2023-05-07T08:54:16;101990.91;;;11.98;78.89
68793;BME280;55778;54.346;10.210;2023-05-07T08:56:43;101991.56;;;12.01;79.15
68793;BME280;55778;54.346;10.210;2023-05-07T08:59:08;101996.38;;;11.98;77.70
68793;BME280;55778;54.346;10.210;2023-05-07T09:01:33;101995.13;;;12.02;78.93
68793;BME280;55778;54.346;10.210;2023-05-07T09:04:01;101993.91;;;11.95;79.30
68793;BME280;55778;54.346;10.210;2023-05-07T09:06:26;102001.81;;;12.20;79.08
68793;BME280;55778;54.346;10.210;2023-05-07T09:08:53;101998.97;;;12.22;76.77
68793;BME280;55778;54.346;10.210;2023-05-07T09:11:20;102000.22;;;12.18;77.37
68793;BME280;55778;54.346;10.210;2023-05-07T09:13:46;102001.34;;;12.04;77.67
68793;BME280;55778;54.346;10.210;2023-05-07T09:16:12;102008.41;;;12.06;77.84
68793;BME280;55778;54.346;10.210;2023-05-07T09:18:42;102007.66;;;12.27;77.76
68793;BME280;55778;54.346;10.210;2023-05-07T09:21:11;102002.97;;;12.60;75.75
68793;BME280;55778;54.346;10.210;2023-05-07T09:23:37;102001.25;;;12.59;76.09
68793;BME280;55778;54.346;10.210;2023-05-07T09:26:03;102019.00;;;12.65;75.51
68793;BME280;55778;54.346;10.210;2023-05-07T09:28:29;102002.97;;;12.71;76.03
68793;BME280;55778;54.346;10.210;2023-05-07T09:30:55;102004.25;;;12.56;76.07
68793;BME280;55778;54.346;10.210;2023-05-07T09:33:21;102012.34;;;12.47;76.40
68793;BME280;55778;54.346;10.210;2023-05-07T09:35:48;102006.53;;;12.72;76.70
68793;BME280;55778;54.346;10.210;2023-05-07T09:38:16;101993.00;;;12.70;75.96
68793;BME280;55778;54.346;10.210;2023-05-07T09:40:42;102009.91;;;12.75;76.10
68793;BME280;55778;54.346;10.210;2023-05-07T09:43:13;102004.78;;;13.13;74.39
68793;BME280;55778;54.346;10.210;2023-05-07T09:45:39;102009.06;;;12.95;73.86
68793;BME280;55778;54.346;10.210;2023-05-07T09:48:05;102011.88;;;12.84;75.14
68793;BME280;55778;54.346;10.210;2023-05-07T09:50:36;102005.44;;;13.06;75.13
68793;BME280;55778;54.346;10.210;2023-05-07T09:53:09;101995.91;;;13.21;74.66
68793;BME280;55778;54.346;10.210;2023-05-07T09:55:35;102007.00;;;13.19;73.42
68793;BME280;55778;54.346;10.210;2023-05-07T09:58:01;102001.66;;;13.18;73.75
68793;BME280;55778;54.346;10.210;2023-05-07T10:00:30;102004.94;;;13.32;73.36
68793;BME280;55778;54.346;10.210;2023-05-07T10:02:57;102000.53;;;13.61;72.50
68793;BME280;55778;54.346;10.210;2023-05-07T10:05:23;101992.75;;;13.87;70.98
68793;BME280;55778;54.346;10.210;2023-05-07T10:07:50;101989.06;;;13.77;71.77
68793;BME280;55778;54.346;10.210;2023-05-07T10:10:17;101987.41;;;13.85;72.33
68793;BME280;55778;54.346;10.210;2023-05-07T10:12:42;101991.00;;;13.86;71.30
68793;BME280;55778;54.346;10.210;2023-05-07T10:15:09;101992.47;;;13.90;71.59
68793;BME280;55778;54.346;10.210;2023-05-07T10:17:36;101993.41;;;14.09;71.46
68793;BME280;55778;54.346;10.210;2023-05-07T10:20:02;101998.56;;;14.33;70.61
68793;BME280;55778;54.346;10.210;2023-05-07T10:22:28;101993.72;;;14.56;70.29
68793;BME280;55778;54.346;10.210;2023-05-07T10:24:59;101989.34;;;14.44;67.98
68793;BME280;55778;54.346;10.210;2023-05-07T10:27:28;101989.16;;;14.26;69.54
68793;BME280;55778;54.346;10.210;2023-05-07T10:32:45;101987.34;;;14.06;69.97
68793;BME280;55778;54.346;10.210;2023-05-07T10:35:14;101995.84;;;14.13;70.14
68793;BME280;55778;54.346;10.210;2023-05-07T10:37:41;101989.28;;;14.64;68.31
68793;BME280;55778;54.346;10.210;2023-05-07T10:40:08;101988.69;;;14.99;66.30
68793;BME280;55778;54.346;10.210;2023-05-07T10:42:35;101987.97;;;15.06;65.85
68793;BME280;55778;54.346;10.210;2023-05-07T10:45:20;101977.59;;;15.10;66.39
68793;BME280;55778;54.346;10.210;2023-05-07T10:48:09;101990.00;;;14.95;66.29
68793;BME280;55778;54.346;10.210;2023-05-07T10:50:36;101984.19;;;14.69;67.15
68793;BME280;55778;54.346;10.210;2023-05-07T10:53:21;101981.75;;;14.57;68.39
68793;BME280;55778;54.346;10.210;2023-05-07T10:55:48;101983.63;;;14.75;68.24
68793;BME280;55778;54.346;10.210;2023-05-07T10:58:24;101993.91;;;15.02;64.49
68793;BME280;55778;54.346;10.210;2023-05-07T11:01:02;101979.31;;;15.20;63.81
68793;BME280;55778;54.346;10.210;2023-05-07T11:03:29;101979.84;;;15.52;63.34
68793;BME280;55778;54.346;10.210;2023-05-07T11:06:24;101976.53;;;15.49;62.55
68793;BME280;55778;54.346;10.210;2023-05-07T11:11:18;101978.41;;;16.31;61.29
68793;BME280;55778;54.346;10.210;2023-05-07T11:13:46;101968.28;;;16.76;60.59
68793;BME280;55778;54.346;10.210;2023-05-07T11:16:20;101967.41;;;17.46;57.29
68793;BME280;55778;54.346;10.210;2023-05-07T11:18:53;101959.91;;;17.64;55.95
68793;BME280;55778;54.346;10.210;2023-05-07T11:24:04;101954.22;;;17.57;53.36
68793;BME280;55778;54.346;10.210;2023-05-07T11:26:32;101960.06;;;17.88;53.43
68793;BME280;55778;54.346;10.210;2023-05-07T11:29:27;101953.41;;;17.65;51.71
68793;BME280;55778;54.346;10.210;2023-05-07T11:31:55;101977.13;;;17.58;53.88
68793;BME280;55778;54.346;10.210;2023-05-07T11:34:25;101960.88;;;17.72;53.24
68793;BME280;55778;54.346;10.210;2023-05-07T11:36:50;101966.06;;;17.32;53.46
68793;BME280;55778;54.346;10.210;2023-05-07T11:39:32;101970.59;;;17.24;52.68
68793;BME280;55778;54.346;10.210;2023-05-07T11:42:01;101958.66;;;17.15;53.73
68793;BME280;55778;54.346;10.210;2023-05-07T11:44:41;101976.31;;;16.87;53.67
68793;BME280;55778;54.346;10.210;2023-05-07T11:47:07;101974.56;;;16.42;54.71
68793;BME280;55778;54.346;10.210;2023-05-07T11:49:34;101968.69;;;16.10;56.59
68793;BME280;55778;54.346;10.210;2023-05-07T11:51:59;101977.78;;;16.10;56.87
68793;BME280;55778;54.346;10.210;2023-05-07T11:54:24;101967.00;;;15.99;57.39
68793;BME280;55778;54.346;10.210;2023-05-07T11:56:51;101957.69;;;16.10;57.18
68793;BME280;55778;54.346;10.210;2023-05-07T11:59:17;101967.25;;;16.33;56.22
68793;BME280;55778;54.346;10.210;2023-05-07T12:01:45;101962.22;;;16.90;56.24
68793;BME280;55778;54.346;10.210;2023-05-07T12:04:11;101967.31;;;17.20;54.27
68793;BME280;55778;54.346;10.210;2023-05-07T12:06:36;101958.03;;;17.21;55.22
68793;BME280;55778;54.346;10.210;2023-05-07T12:09:03;101955.13;;;17.05;53.42
68793;BME280;55778;54.346;10.210;2023-05-07T12:11:29;101949.88;;;16.77;53.85
68793;BME280;55778;54.346;10.210;2023-05-07T12:13:54;101949.28;;;16.56;55.62
68793;BME280;55778;54.346;10.210;2023-05-07T12:16:21;101944.00;;;16.72;56.54
68793;BME280;55778;54.346;10.210;2023-05-07T12:18:46;101946.75;;;17.32;55.96
68793;BME280;55778;54.346;10.210;2023-05-07T12:21:12;101948.72;;;17.40;52.95
68793;BME280;55778;54.346;10.210;2023-05-07T12:23:38;101957.94;;;17.48;52.52
68793;BME280;55778;54.346;10.210;2023-05-07T12:26:04;101955.84;;;16.90;53.56
68793;BME280;55778;54.346;10.210;2023-05-07T12:28:30;101951.69;;;16.86;54.49
68793;BME280;55778;54.346;10.210;2023-05-07T12:30:56;101952.53;;;17.04;54.67
68793;BME280;55778;54.346;10.210;2023-05-07T12:33:26;101961.03;;;17.10;54.11
68793;BME280;55778;54.346;10.210;2023-05-07T12:35:54;101963.41;;;16.88;54.59
68793;BME280;55778;54.346;10.210;2023-05-07T12:38:20;101958.16;;;17.37;55.43
68793;BME280;55778;54.346;10.210;2023-05-07T12:40:50;101947.22;;;17.97;52.76
68793;BME280;55778;54.346;10.210;2023-05-07T12:43:27;101957.06;;;18.07;51.32
68793;BME280;55778;54.346;10.210;2023-05-07T12:46:11;101950.56;;;17.57;53.30